sensor_id;sensor_type;location;lat;lon;timestamp;temperature;humidity
2967;DHT22;1493;51.496;7.210;2024-01-30T00:00:06;7.30;99.90
2967;DHT22;1493;51.496;7.210;2024-01-30T00:02:36;7.20;99.90
2967;DHT22;1493;51.496;7.210;2024-01-30T00:05:03;7.30;99.90
2967;DHT22;1493;51.496;7.210;2024-01-30T00:07:30;7.30;99.90
2967;DHT22;1493;51.496;7.210;2024-01-30T00:09:57;7.30;99.90
2967;DHT22;1493;51.496;7.210;2024-01-30T00:12:23;7.30;99.90
2967;DHT22;1493;51.496;7.210;2024-01-30T00:14:51;7.40;99.90
2967;DHT22;1493;51.496;7.210;2024-01-30T00:17:18;7.30;99.90
2967;DHT22;1493;51.496;7.210;2024-01-30T00:19:47;7.30;99.90
2967;DHT22;1493;51.496;7.210;2024-01-30T00:22:14;7.30;99.90
2967;DHT22;1493;51.496;7.210;2024-01-30T00:24:41;7.30;99.90
2967;DHT22;1493;51.496;7.210;2024-01-30T00:27:08;7.30;99.90
2967;DHT22;1493;51.496;7.210;2024-01-30T00:29:35;7.20;99.90
2967;DHT22;1493;51.496;7.210;2024-01-30T00:32:02;7.20;99.90
2967;DHT22;1493;51.496;7.210;2024-01-30T00:34:28;7.20;99.90
2967;DHT22;1493;51.496;7.210;2024-01-30T00:36:56;7.20;99.90
2967;DHT22;1493;51.496;7.210;2024-01-30T00:39:23;7.20;99.90
2967;DHT22;1493;51.496;7.210;2024-01-30T00:41:50;7.20;99.90
2967;DHT22;1493;51.496;7.210;2024-01-30T00:44:17;7.20;99.90
2967;DHT22;1493;51.496;7.210;2024-01-30T00:46:43;7.20;99.90
2967;DHT22;1493;51.496;7.210;2024-01-30T00:49:11;7.20;99.90
2967;DHT22;1493;51.496;7.210;2024-01-30T00:51:37;7.20;99.90
2967;DHT22;1493;51.496;7.210;2024-01-30T00:54:05;7.20;99.90
2967;DHT22;1493;51.496;7.210;2024-01-30T00:56:33;7.30;99.90
2967;DHT22;1493;51.496;7.210;2024-01-30T00:59:00;7.30;99.90
2967;DHT22;1493;51.496;7.210;2024-01-30T01:01:27;7.30;99.90
2967;DHT22;1493;51.496;7.210;2024-01-30T01:03:54;7.30;99.90
2967;DHT22;1493;51.496;7.210;2024-01-30T01:06:21;7.40;99.90
2967;DHT22;1493;51.496;7.210;2024-01-30T01:08:49;7.40;99.90
2967;DHT22;1493;51.496;7.210;2024-01-30T01:11:18;7.40;99.90
2967;DHT22;1493;51.496;7.210;2024-01-30T01:13:44;7.40;99.90
2967;DHT22;1493;51.496;7.210;2024-01-30T01:16:11;7.40;99.90
2967;DHT22;1493;51.496;7.210;2024-01-30T01:18:41;7.40;99.90
2967;DHT22;1493;51.496;7.210;2024-01-30T01:21:08;7.40;99.90
2967;DHT22;1493;51.496;7.210;2024-01-30T01:23:34;7.30;99.90
2967;DHT22;1493;51.496;7.210;2024-01-30T01:26:01;7.40;99.90
2967;DHT22;1493;51.496;7.210;2024-01-30T01:28:29;7.40;99.90
2967;DHT22;1493;51.496;7.210;2024-01-30T01:30:56;7.40;99.90
2967;DHT22;1493;51.496;7.210;2024-01-30T01:33:30;7.40;99.90
2967;DHT22;1493;51.496;7.210;2024-01-30T01:35:57;7.40;99.90
2967;DHT22;1493;51.496;7.210;2024-01-30T01:38:24;7.30;99.90
2967;DHT22;1493;51.496;7.210;2024-01-30T01:40:51;7.30;99.90
2967;DHT22;1493;51.496;7.210;2024-01-30T01:43:18;7.30;99.90
2967;DHT22;1493;51.496;7.210;2024-01-30T01:45:46;7.30;99.90
2967;DHT22;1493;51.496;7.210;2024-01-30T01:48:12;7.30;99.90
2967;DHT22;1493;51.496;7.210;2024-01-30T01:50:40;7.30;99.90
2967;DHT22;1493;51.496;7.210;2024-01-30T01:53:08;7.20;99.90
2967;DHT22;1493;51.496;7.210;2024-01-30T01:55:35;7.20;99.90
2967;DHT22;1493;51.496;7.210;2024-01-30T01:58:03;7.20;99.90
2967;DHT22;1493;51.496;7.210;2024-01-30T02:00:30;7.20;99.90
2967;DHT22;1493;51.496;7.210;2024-01-30T02:02:59;7.20;99.90
2967;DHT22;1493;51.496;7.210;2024-01-30T02:05:27;7.20;99.90
2967;DHT22;1493;51.496;7.210;2024-01-30T02:07:54;7.20;99.90
2967;DHT22;1493;51.496;7.210;2024-01-30T02:10:22;7.10;99.90
2967;DHT22;1493;51.496;7.210;2024-01-30T02:12:48;7.10;99.90
2967;DHT22;1493;51.496;7.210;2024-01-30T02:15:15;7.20;99.90
2967;DHT22;1493;51.496;7.210;2024-01-30T02:17:42;7.20;99.90
2967;DHT22;1493;51.496;7.210;2024-01-30T02:20:11;7.20;99.90
2967;DHT22;1493;51.496;7.210;2024-01-30T02:22:40;7.20;99.90
2967;DHT22;1493;51.496;7.210;2024-01-30T02:25:08;7.20;99.90
2967;DHT22;1493;51.496;7.210;2024-01-30T02:27:35;7.20;99.90
2967;DHT22;1493;51.496;7.210;2024-01-30T02:30:02;7.20;99.90
2967;DHT22;1493;51.496;7.210;2024-01-30T02:32:29;7.20;99.90
2967;DHT22;1493;51.496;7.210;2024-01-30T02:34:56;7.30;99.90
2967;DHT22;1493;51.496;7.210;2024-01-30T02:37:23;7.20;99.90
2967;DHT22;1493;51.496;7.210;2024-01-30T02:39:51;7.20;99.90
2967;DHT22;1493;51.496;7.210;2024-01-30T02:42:17;7.20;99.90
2967;DHT22;1493;51.496;7.210;2024-01-30T02:44:44;7.20;99.90
2967;DHT22;1493;51.496;7.210;2024-01-30T02:47:11;7.20;99.90
2967;DHT22;1493;51.496;7.210;2024-01-30T02:49:38;7.20;99.90
2967;DHT22;1493;51.496;7.210;2024-01-30T02:52:05;7.20;99.90
2967;DHT22;1493;51.496;7.210;2024-01-30T02:54:32;7.20;99.90
2967;DHT22;1493;51.496;7.210;2024-01-30T02:57:00;7.20;99.90
2967;DHT22;1493;51.496;7.210;2024-01-30T02:59:26;7.20;99.90
2967;DHT22;1493;51.496;7.210;2024-01-30T03:01:53;7.10;99.90
2967;DHT22;1493;51.496;7.210;2024-01-30T03:04:20;7.10;99.90
2967;DHT22;1493;51.496;7.210;2024-01-30T03:06:47;7.10;99.90
2967;DHT22;1493;51.496;7.210;2024-01-30T03:09:16;7.10;99.90
2967;DHT22;1493;51.496;7.210;2024-01-30T03:11:42;7.10;99.90
2967;DHT22;1493;51.496;7.210;2024-01-30T03:14:11;7.10;99.90
2967;DHT22;1493;51.496;7.210;2024-01-30T03:16:38;7.10;99.90
2967;DHT22;1493;51.496;7.210;2024-01-30T03:19:06;7.10;99.90
2967;DHT22;1493;51.496;7.210;2024-01-30T03:21:33;7.00;99.90
2967;DHT22;1493;51.496;7.210;2024-01-30T03:23:59;7.00;99.90
2967;DHT22;1493;51.496;7.210;2024-01-30T03:26:26;7.00;99.90
2967;DHT22;1493;51.496;7.210;2024-01-30T03:28:53;7.00;99.90
2967;DHT22;1493;51.496;7.210;2024-01-30T03:31:21;7.00;99.90
2967;DHT22;1493;51.496;7.210;2024-01-30T03:33:48;7.00;99.90
2967;DHT22;1493;51.496;7.210;2024-01-30T03:36:15;7.00;99.90
2967;DHT22;1493;51.496;7.210;2024-01-30T03:38:42;7.10;99.90
2967;DHT22;1493;51.496;7.210;2024-01-30T03:41:09;7.00;99.90
2967;DHT22;1493;51.496;7.210;2024-01-30T03:43:36;7.10;99.90
2967;DHT22;1493;51.496;7.210;2024-01-30T03:46:03;7.10;99.90
2967;DHT22;1493;51.496;7.210;2024-01-30T03:48:32;7.10;99.90
2967;DHT22;1493;51.496;7.210;2024-01-30T03:50:58;7.20;99.90
2967;DHT22;1493;51.496;7.210;2024-01-30T03:53:25;7.10;99.90
2967;DHT22;1493;51.496;7.210;2024-01-30T03:55:52;7.10;99.90
2967;DHT22;1493;51.496;7.210;2024-01-30T03:58:19;7.10;99.90
2967;DHT22;1493;51.496;7.210;2024-01-30T04:00:46;7.10;99.90
2967;DHT22;1493;51.496;7.210;2024-01-30T04:03:12;7.10;99.90
2967;DHT22;1493;51.496;7.210;2024-01-30T04:05:42;7.10;99.90
2967;DHT22;1493;51.496;7.210;2024-01-30T04:08:09;7.00;99.90
2967;DHT22;1493;51.496;7.210;2024-01-30T04:10:36;7.00;99.90
2967;DHT22;1493;51.496;7.210;2024-01-30T04:13:03;7.00;99.90
2967;DHT22;1493;51.496;7.210;2024-01-30T04:15:30;7.00;99.90
2967;DHT22;1493;51.496;7.210;2024-01-30T04:17:57;6.90;99.90
2967;DHT22;1493;51.496;7.210;2024-01-30T04:20:25;6.90;99.90
2967;DHT22;1493;51.496;7.210;2024-01-30T04:22:53;6.90;99.90
2967;DHT22;1493;51.496;7.210;2024-01-30T04:25:20;6.80;99.90
2967;DHT22;1493;51.496;7.210;2024-01-30T04:27:46;6.80;99.90
2967;DHT22;1493;51.496;7.210;2024-01-30T04:30:13;6.80;99.90
2967;DHT22;1493;51.496;7.210;2024-01-30T04:32:40;6.80;99.90
2967;DHT22;1493;51.496;7.210;2024-01-30T04:35:07;6.80;99.90
2967;DHT22;1493;51.496;7.210;2024-01-30T04:37:34;6.80;99.90
2967;DHT22;1493;51.496;7.210;2024-01-30T04:40:03;6.80;99.90
2967;DHT22;1493;51.496;7.210;2024-01-30T04:42:30;6.80;99.90
2967;DHT22;1493;51.496;7.210;2024-01-30T04:44:57;6.70;99.90
2967;DHT22;1493;51.496;7.210;2024-01-30T04:47:24;6.80;99.90
2967;DHT22;1493;51.496;7.210;2024-01-30T04:49:51;6.80;99.90
2967;DHT22;1493;51.496;7.210;2024-01-30T04:52:18;6.70;99.90
2967;DHT22;1493;51.496;7.210;2024-01-30T04:54:45;6.70;99.90
2967;DHT22;1493;51.496;7.210;2024-01-30T04:57:13;6.80;99.90
2967;DHT22;1493;51.496;7.210;2024-01-30T04:59:40;6.80;99.90
2967;DHT22;1493;51.496;7.210;2024-01-30T05:02:07;6.70;99.90
2967;DHT22;1493;51.496;7.210;2024-01-30T05:04:33;6.80;99.90
2967;DHT22;1493;51.496;7.210;2024-01-30T05:07:00;6.70;99.90
2967;DHT22;1493;51.496;7.210;2024-01-30T05:09:27;6.70;99.90
2967;DHT22;1493;51.496;7.210;2024-01-30T05:11:54;6.70;99.90
2967;DHT22;1493;51.496;7.210;2024-01-30T05:14:22;6.70;99.90
2967;DHT22;1493;51.496;7.210;2024-01-30T05:16:49;6.70;99.90
2967;DHT22;1493;51.496;7.210;2024-01-30T05:19:16;6.70;99.90
2967;DHT22;1493;51.496;7.210;2024-01-30T05:21:43;6.70;99.90
2967;DHT22;1493;51.496;7.210;2024-01-30T05:24:10;6.70;99.90
2967;DHT22;1493;51.496;7.210;2024-01-30T05:26:37;6.70;99.90
2967;DHT22;1493;51.496;7.210;2024-01-30T05:29:05;6.70;99.90
2967;DHT22;1493;51.496;7.210;2024-01-30T05:31:34;6.70;99.90
2967;DHT22;1493;51.496;7.210;2024-01-30T05:34:01;6.60;99.90
2967;DHT22;1493;51.496;7.210;2024-01-30T05:36:28;6.60;99.90
2967;DHT22;1493;51.496;7.210;2024-01-30T05:38:56;6.60;99.90
2967;DHT22;1493;51.496;7.210;2024-01-30T05:41:23;6.60;99.90
2967;DHT22;1493;51.496;7.210;2024-01-30T05:43:49;6.50;99.90
2967;DHT22;1493;51.496;7.210;2024-01-30T05:46:16;6.50;99.90
2967;DHT22;1493;51.496;7.210;2024-01-30T05:48:44;6.50;99.90
2967;DHT22;1493;51.496;7.210;2024-01-30T05:51:11;6.50;99.90
2967;DHT22;1493;51.496;7.210;2024-01-30T05:53:38;6.50;99.90
2967;DHT22;1493;51.496;7.210;2024-01-30T05:56:06;6.40;99.90
2967;DHT22;1493;51.496;7.210;2024-01-30T05:58:32;6.30;99.90
2967;DHT22;1493;51.496;7.210;2024-01-30T06:00:59;6.30;99.90
2967;DHT22;1493;51.496;7.210;2024-01-30T06:03:26;6.30;99.90
2967;DHT22;1493;51.496;7.210;2024-01-30T06:05:54;6.30;99.90
2967;DHT22;1493;51.496;7.210;2024-01-30T06:08:21;6.30;99.90
2967;DHT22;1493;51.496;7.210;2024-01-30T06:10:48;6.30;99.90
2967;DHT22;1493;51.496;7.210;2024-01-30T06:13:15;6.30;99.90
2967;DHT22;1493;51.496;7.210;2024-01-30T06:15:41;6.20;99.90
2967;DHT22;1493;51.496;7.210;2024-01-30T06:18:08;6.20;99.90
2967;DHT22;1493;51.496;7.210;2024-01-30T06:20:35;6.30;99.90
2967;DHT22;1493;51.496;7.210;2024-01-30T06:23:04;6.30;99.90
2967;DHT22;1493;51.496;7.210;2024-01-30T06:25:30;6.30;99.90
2967;DHT22;1493;51.496;7.210;2024-01-30T06:27:57;6.30;99.90
2967;DHT22;1493;51.496;7.210;2024-01-30T06:30:24;6.30;99.90
2967;DHT22;1493;51.496;7.210;2024-01-30T06:32:51;6.30;99.90
2967;DHT22;1493;51.496;7.210;2024-01-30T06:35:18;6.30;99.90
2967;DHT22;1493;51.496;7.210;2024-01-30T06:37:45;6.30;99.90
2967;DHT22;1493;51.496;7.210;2024-01-30T06:40:13;6.30;99.90
2967;DHT22;1493;51.496;7.210;2024-01-30T06:42:40;6.30;99.90
2967;DHT22;1493;51.496;7.210;2024-01-30T06:45:08;6.40;99.90
2967;DHT22;1493;51.496;7.210;2024-01-30T06:47:34;6.40;99.90
2967;DHT22;1493;51.496;7.210;2024-01-30T06:50:01;6.40;99.90
2967;DHT22;1493;51.496;7.210;2024-01-30T06:52:29;6.40;99.90
2967;DHT22;1493;51.496;7.210;2024-01-30T06:54:55;6.50;99.90
2967;DHT22;1493;51.496;7.210;2024-01-30T06:57:24;6.50;99.90
2967;DHT22;1493;51.496;7.210;2024-01-30T06:59:52;6.50;99.90
2967;DHT22;1493;51.496;7.210;2024-01-30T07:02:22;6.60;99.90
2967;DHT22;1493;51.496;7.210;2024-01-30T07:04:48;6.60;99.90
2967;DHT22;1493;51.496;7.210;2024-01-30T07:07:15;6.70;99.90
2967;DHT22;1493;51.496;7.210;2024-01-30T07:09:42;6.70;99.90
2967;DHT22;1493;51.496;7.210;2024-01-30T07:12:09;6.70;99.90
2967;DHT22;1493;51.496;7.210;2024-01-30T07:14:37;6.70;99.90
2967;DHT22;1493;51.496;7.210;2024-01-30T07:17:04;6.80;99.90
2967;DHT22;1493;51.496;7.210;2024-01-30T07:19:31;6.80;99.90
2967;DHT22;1493;51.496;7.210;2024-01-30T07:21:59;6.80;99.90
2967;DHT22;1493;51.496;7.210;2024-01-30T07:24:25;6.80;99.90
2967;DHT22;1493;51.496;7.210;2024-01-30T07:26:53;6.90;99.90
2967;DHT22;1493;51.496;7.210;2024-01-30T07:29:19;6.90;99.90
2967;DHT22;1493;51.496;7.210;2024-01-30T07:31:48;6.90;99.90
2967;DHT22;1493;51.496;7.210;2024-01-30T07:34:15;7.00;99.90
2967;DHT22;1493;51.496;7.210;2024-01-30T07:36:42;7.10;99.90
2967;DHT22;1493;51.496;7.210;2024-01-30T07:39:09;7.20;99.90
2967;DHT22;1493;51.496;7.210;2024-01-30T07:41:36;7.20;99.90
2967;DHT22;1493;51.496;7.210;2024-01-30T07:44:03;7.30;99.90
2967;DHT22;1493;51.496;7.210;2024-01-30T07:46:30;7.30;99.90
2967;DHT22;1493;51.496;7.210;2024-01-30T07:49:01;7.40;99.90
2967;DHT22;1493;51.496;7.210;2024-01-30T07:51:38;7.40;99.90
2967;DHT22;1493;51.496;7.210;2024-01-30T07:54:05;7.50;99.90
2967;DHT22;1493;51.496;7.210;2024-01-30T07:56:32;7.50;99.90
2967;DHT22;1493;51.496;7.210;2024-01-30T07:58:59;7.60;99.90
2967;DHT22;1493;51.496;7.210;2024-01-30T08:01:25;7.70;99.90
2967;DHT22;1493;51.496;7.210;2024-01-30T08:03:53;7.70;99.90
2967;DHT22;1493;51.496;7.210;2024-01-30T08:06:21;7.80;99.90
2967;DHT22;1493;51.496;7.210;2024-01-30T08:08:48;7.90;99.90
2967;DHT22;1493;51.496;7.210;2024-01-30T08:11:15;8.00;99.90
2967;DHT22;1493;51.496;7.210;2024-01-30T08:13:42;8.10;99.90
2967;DHT22;1493;51.496;7.210;2024-01-30T08:16:09;8.20;99.90
2967;DHT22;1493;51.496;7.210;2024-01-30T08:18:36;8.20;99.90
2967;DHT22;1493;51.496;7.210;2024-01-30T08:21:02;8.30;99.90
2967;DHT22;1493;51.496;7.210;2024-01-30T08:23:31;8.40;99.90
2967;DHT22;1493;51.496;7.210;2024-01-30T08:25:58;8.50;99.90
2967;DHT22;1493;51.496;7.210;2024-01-30T08:28:24;8.60;99.90
2967;DHT22;1493;51.496;7.210;2024-01-30T08:30:51;8.60;99.90
2967;DHT22;1493;51.496;7.210;2024-01-30T08:33:18;8.70;99.90
2967;DHT22;1493;51.496;7.210;2024-01-30T08:35:45;8.70;99.90
2967;DHT22;1493;51.496;7.210;2024-01-30T08:38:12;8.80;99.90
2967;DHT22;1493;51.496;7.210;2024-01-30T08:40:40;8.90;99.90
2967;DHT22;1493;51.496;7.210;2024-01-30T08:43:07;8.90;99.90
2967;DHT22;1493;51.496;7.210;2024-01-30T08:45:35;8.90;99.90
2967;DHT22;1493;51.496;7.210;2024-01-30T08:48:02;8.90;99.90
2967;DHT22;1493;51.496;7.210;2024-01-30T08:50:29;9.00;99.90
2967;DHT22;1493;51.496;7.210;2024-01-30T08:52:58;9.10;99.90
2967;DHT22;1493;51.496;7.210;2024-01-30T08:55:25;9.20;99.90
2967;DHT22;1493;51.496;7.210;2024-01-30T08:57:53;9.30;99.90
2967;DHT22;1493;51.496;7.210;2024-01-30T09:00:20;9.40;99.90
2967;DHT22;1493;51.496;7.210;2024-01-30T09:02:47;9.50;99.90
2967;DHT22;1493;51.496;7.210;2024-01-30T09:05:17;9.70;99.90
2967;DHT22;1493;51.496;7.210;2024-01-30T09:07:44;9.90;99.90
2967;DHT22;1493;51.496;7.210;2024-01-30T09:10:11;10.10;99.90
2967;DHT22;1493;51.496;7.210;2024-01-30T09:12:38;10.30;99.90
2967;DHT22;1493;51.496;7.210;2024-01-30T09:15:07;10.40;99.90
2967;DHT22;1493;51.496;7.210;2024-01-30T09:17:34;10.60;99.90
2967;DHT22;1493;51.496;7.210;2024-01-30T09:20:01;10.80;99.90
2967;DHT22;1493;51.496;7.210;2024-01-30T09:22:27;10.90;99.90
2967;DHT22;1493;51.496;7.210;2024-01-30T09:24:54;11.00;99.90
2967;DHT22;1493;51.496;7.210;2024-01-30T09:27:21;11.10;99.90
2967;DHT22;1493;51.496;7.210;2024-01-30T09:29:48;11.10;99.90
2967;DHT22;1493;51.496;7.210;2024-01-30T09:32:16;11.10;99.90
2967;DHT22;1493;51.496;7.210;2024-01-30T09:34:44;11.10;99.90
2967;DHT22;1493;51.496;7.210;2024-01-30T09:37:11;11.10;99.90
2967;DHT22;1493;51.496;7.210;2024-01-30T09:39:40;11.10;99.90
2967;DHT22;1493;51.496;7.210;2024-01-30T09:42:17;11.10;99.90
2967;DHT22;1493;51.496;7.210;2024-01-30T09:44:46;11.20;99.90
2967;DHT22;1493;51.496;7.210;2024-01-30T09:47:17;11.30;99.90
2967;DHT22;1493;51.496;7.210;2024-01-30T09:49:44;11.40;99.90
2967;DHT22;1493;51.496;7.210;2024-01-30T09:52:11;11.50;99.90
2967;DHT22;1493;51.496;7.210;2024-01-30T09:54:38;11.60;99.90
2967;DHT22;1493;51.496;7.210;2024-01-30T09:57:05;11.80;99.90
2967;DHT22;1493;51.496;7.210;2024-01-30T09:59:32;11.90;99.90
2967;DHT22;1493;51.496;7.210;2024-01-30T10:02:00;12.10;99.90
2967;DHT22;1493;51.496;7.210;2024-01-30T10:04:31;12.20;99.90
2967;DHT22;1493;51.496;7.210;2024-01-30T10:06:57;12.40;99.90
2967;DHT22;1493;51.496;7.210;2024-01-30T10:09:26;12.40;99.90
2967;DHT22;1493;51.496;7.210;2024-01-30T10:11:53;12.60;99.90
2967;DHT22;1493;51.496;7.210;2024-01-30T10:14:20;12.50;99.90
2967;DHT22;1493;51.496;7.210;2024-01-30T10:16:47;12.50;99.90
2967;DHT22;1493;51.496;7.210;2024-01-30T10:19:14;12.50;99.90
2967;DHT22;1493;51.496;7.210;2024-01-30T10:21:42;12.60;99.90
2967;DHT22;1493;51.496;7.210;2024-01-30T10:24:10;12.70;99.90
2967;DHT22;1493;51.496;7.210;2024-01-30T10:26:38;12.90;99.90
2967;DHT22;1493;51.496;7.210;2024-01-30T10:29:05;13.10;99.90
2967;DHT22;1493;51.496;7.210;2024-01-30T10:31:32;13.20;99.90
2967;DHT22;1493;51.496;7.210;2024-01-30T10:33:59;13.20;99.90
2967;DHT22;1493;51.496;7.210;2024-01-30T10:36:28;13.30;99.90
2967;DHT22;1493;51.496;7.210;2024-01-30T10:38:59;13.40;99.90
2967;DHT22;1493;51.496;7.210;2024-01-30T10:41:27;13.50;99.90
2967;DHT22;1493;51.496;7.210;2024-01-30T10:43:58;13.60;99.90
2967;DHT22;1493;51.496;7.210;2024-01-30T10:46:31;13.70;99.90
2967;DHT22;1493;51.496;7.210;2024-01-30T10:48:59;13.80;99.90
2967;DHT22;1493;51.496;7.210;2024-01-30T10:51:27;14.10;99.90
2967;DHT22;1493;51.496;7.210;2024-01-30T10:53:56;14.40;99.90
2967;DHT22;1493;51.496;7.210;2024-01-30T10:56:24;14.70;99.90
2967;DHT22;1493;51.496;7.210;2024-01-30T10:58:52;14.70;99.90
2967;DHT22;1493;51.496;7.210;2024-01-30T11:01:19;14.80;99.90
2967;DHT22;1493;51.496;7.210;2024-01-30T11:03:49;14.80;99.90
2967;DHT22;1493;51.496;7.210;2024-01-30T11:06:16;14.90;99.90
2967;DHT22;1493;51.496;7.210;2024-01-30T11:08:45;15.00;99.90
2967;DHT22;1493;51.496;7.210;2024-01-30T11:11:13;14.80;99.90
2967;DHT22;1493;51.496;7.210;2024-01-30T11:13:44;14.70;99.90
2967;DHT22;1493;51.496;7.210;2024-01-30T11:16:11;14.40;99.90
2967;DHT22;1493;51.496;7.210;2024-01-30T11:18:38;14.30;99.90
2967;DHT22;1493;51.496;7.210;2024-01-30T11:21:05;14.10;99.90
2967;DHT22;1493;51.496;7.210;2024-01-30T11:23:33;14.10;99.90
2967;DHT22;1493;51.496;7.210;2024-01-30T11:26:00;14.10;99.90
2967;DHT22;1493;51.496;7.210;2024-01-30T11:28:33;14.10;99.90
2967;DHT22;1493;51.496;7.210;2024-01-30T11:31:04;14.00;99.90
2967;DHT22;1493;51.496;7.210;2024-01-30T11:33:32;14.00;99.90
2967;DHT22;1493;51.496;7.210;2024-01-30T11:36:00;14.10;99.90
2967;DHT22;1493;51.496;7.210;2024-01-30T11:38:27;14.20;99.90
2967;DHT22;1493;51.496;7.210;2024-01-30T11:40:55;14.30;99.90
2967;DHT22;1493;51.496;7.210;2024-01-30T11:43:23;14.00;99.90
2967;DHT22;1493;51.496;7.210;2024-01-30T11:45:51;14.00;99.90
2967;DHT22;1493;51.496;7.210;2024-01-30T11:48:18;13.90;99.90
2967;DHT22;1493;51.496;7.210;2024-01-30T11:50:45;13.80;99.90
2967;DHT22;1493;51.496;7.210;2024-01-30T11:53:12;13.60;99.90
2967;DHT22;1493;51.496;7.210;2024-01-30T11:55:39;13.60;99.90
2967;DHT22;1493;51.496;7.210;2024-01-30T11:58:06;13.40;99.90
2967;DHT22;1493;51.496;7.210;2024-01-30T12:00:34;13.50;99.90
2967;DHT22;1493;51.496;7.210;2024-01-30T12:03:03;13.50;99.90
2967;DHT22;1493;51.496;7.210;2024-01-30T12:05:32;13.50;99.90
2967;DHT22;1493;51.496;7.210;2024-01-30T12:07:58;13.40;99.90
2967;DHT22;1493;51.496;7.210;2024-01-30T12:10:25;13.40;99.90
2967;DHT22;1493;51.496;7.210;2024-01-30T12:12:53;13.40;99.90
2967;DHT22;1493;51.496;7.210;2024-01-30T12:15:22;13.40;99.90
2967;DHT22;1493;51.496;7.210;2024-01-30T12:17:49;13.30;99.90
2967;DHT22;1493;51.496;7.210;2024-01-30T12:20:19;13.30;99.90
2967;DHT22;1493;51.496;7.210;2024-01-30T12:22:47;13.20;99.90
2967;DHT22;1493;51.496;7.210;2024-01-30T12:25:16;13.10;99.90
2967;DHT22;1493;51.496;7.210;2024-01-30T12:27:43;12.90;99.90
2967;DHT22;1493;51.496;7.210;2024-01-30T12:30:12;12.90;99.90
2967;DHT22;1493;51.496;7.210;2024-01-30T12:32:41;12.90;99.90
2967;DHT22;1493;51.496;7.210;2024-01-30T12:35:10;13.00;99.90
2967;DHT22;1493;51.496;7.210;2024-01-30T12:37:38;13.10;99.90
2967;DHT22;1493;51.496;7.210;2024-01-30T12:40:07;13.10;99.90
2967;DHT22;1493;51.496;7.210;2024-01-30T12:42:34;13.20;99.90
2967;DHT22;1493;51.496;7.210;2024-01-30T12:45:02;13.20;99.90
2967;DHT22;1493;51.496;7.210;2024-01-30T12:47:29;13.30;99.90
2967;DHT22;1493;51.496;7.210;2024-01-30T12:49:56;13.20;99.90
2967;DHT22;1493;51.496;7.210;2024-01-30T12:52:23;13.10;99.90
2967;DHT22;1493;51.496;7.210;2024-01-30T12:54:51;13.20;99.90
2967;DHT22;1493;51.496;7.210;2024-01-30T12:57:18;13.20;99.90
2967;DHT22;1493;51.496;7.210;2024-01-30T12:59:45;13.20;99.90
2967;DHT22;1493;51.496;7.210;2024-01-30T13:02:16;13.20;99.90
2967;DHT22;1493;51.496;7.210;2024-01-30T13:04:43;13.10;99.90
2967;DHT22;1493;51.496;7.210;2024-01-30T13:07:10;13.10;99.90
2967;DHT22;1493;51.496;7.210;2024-01-30T13:09:37;13.10;99.90
2967;DHT22;1493;51.496;7.210;2024-01-30T13:12:05;12.90;99.90
2967;DHT22;1493;51.496;7.210;2024-01-30T13:14:32;12.90;99.90
2967;DHT22;1493;51.496;7.210;2024-01-30T13:16:59;12.90;99.90
2967;DHT22;1493;51.496;7.210;2024-01-30T13:19:26;12.90;99.90
2967;DHT22;1493;51.496;7.210;2024-01-30T13:21:55;12.80;99.90
2967;DHT22;1493;51.496;7.210;2024-01-30T13:24:22;12.80;99.90
2967;DHT22;1493;51.496;7.210;2024-01-30T13:26:49;12.70;99.90
2967;DHT22;1493;51.496;7.210;2024-01-30T13:29:18;12.70;99.90
2967;DHT22;1493;51.496;7.210;2024-01-30T13:31:45;12.70;99.90
2967;DHT22;1493;51.496;7.210;2024-01-30T13:34:12;12.70;99.90
2967;DHT22;1493;51.496;7.210;2024-01-30T13:36:42;12.70;99.90
2967;DHT22;1493;51.496;7.210;2024-01-30T13:39:10;12.60;99.90
2967;DHT22;1493;51.496;7.210;2024-01-30T13:41:38;12.50;99.90
2967;DHT22;1493;51.496;7.210;2024-01-30T13:44:06;12.50;99.90
2967;DHT22;1493;51.496;7.210;2024-01-30T13:46:35;13.10;99.90
2967;DHT22;1493;51.496;7.210;2024-01-30T13:49:02;12.60;99.90
2967;DHT22;1493;51.496;7.210;2024-01-30T13:51:29;12.50;99.90
2967;DHT22;1493;51.496;7.210;2024-01-30T13:53:56;12.50;99.90
2967;DHT22;1493;51.496;7.210;2024-01-30T13:56:23;12.40;99.90
2967;DHT22;1493;51.496;7.210;2024-01-30T13:58:50;12.40;99.90
2967;DHT22;1493;51.496;7.210;2024-01-30T14:01:17;12.30;99.90
2967;DHT22;1493;51.496;7.210;2024-01-30T14:03:45;12.30;99.90
2967;DHT22;1493;51.496;7.210;2024-01-30T14:06:12;12.30;99.90
2967;DHT22;1493;51.496;7.210;2024-01-30T14:08:39;12.20;99.90
2967;DHT22;1493;51.496;7.210;2024-01-30T14:11:05;12.30;99.90
2967;DHT22;1493;51.496;7.210;2024-01-30T14:13:32;12.30;99.90
2967;DHT22;1493;51.496;7.210;2024-01-30T14:16:00;12.30;99.90
2967;DHT22;1493;51.496;7.210;2024-01-30T14:18:27;12.30;99.90
2967;DHT22;1493;51.496;7.210;2024-01-30T14:20:55;12.40;99.90
2967;DHT22;1493;51.496;7.210;2024-01-30T14:23:22;12.30;99.90
2967;DHT22;1493;51.496;7.210;2024-01-30T14:25:49;12.40;99.90
2967;DHT22;1493;51.496;7.210;2024-01-30T14:28:17;12.50;99.90
2967;DHT22;1493;51.496;7.210;2024-01-30T14:30:43;12.60;99.90
2967;DHT22;1493;51.496;7.210;2024-01-30T14:33:10;12.70;99.90
2967;DHT22;1493;51.496;7.210;2024-01-30T14:35:37;12.70;99.90
2967;DHT22;1493;51.496;7.210;2024-01-30T14:38:05;12.80;99.90
2967;DHT22;1493;51.496;7.210;2024-01-30T14:40:33;12.70;99.90
2967;DHT22;1493;51.496;7.210;2024-01-30T14:43:00;12.70;99.90
2967;DHT22;1493;51.496;7.210;2024-01-30T14:45:26;12.80;99.90
2967;DHT22;1493;51.496;7.210;2024-01-30T14:47:53;12.80;99.90
2967;DHT22;1493;51.496;7.210;2024-01-30T14:50:21;12.80;99.90
2967;DHT22;1493;51.496;7.210;2024-01-30T14:52:48;12.70;99.90
2967;DHT22;1493;51.496;7.210;2024-01-30T14:55:17;12.60;99.90
2967;DHT22;1493;51.496;7.210;2024-01-30T14:57:44;12.50;99.90
2967;DHT22;1493;51.496;7.210;2024-01-30T15:00:12;12.40;99.90
2967;DHT22;1493;51.496;7.210;2024-01-30T15:02:39;12.30;99.90
2967;DHT22;1493;51.496;7.210;2024-01-30T15:05:06;12.40;99.90
2967;DHT22;1493;51.496;7.210;2024-01-30T15:07:33;12.40;99.90
2967;DHT22;1493;51.496;7.210;2024-01-30T15:10:01;12.50;99.90
2967;DHT22;1493;51.496;7.210;2024-01-30T15:12:30;12.40;99.90
2967;DHT22;1493;51.496;7.210;2024-01-30T15:14:57;12.40;99.90
2967;DHT22;1493;51.496;7.210;2024-01-30T15:17:23;12.40;99.90
2967;DHT22;1493;51.496;7.210;2024-01-30T15:19:50;12.40;99.90
2967;DHT22;1493;51.496;7.210;2024-01-30T15:22:17;12.40;99.90
2967;DHT22;1493;51.496;7.210;2024-01-30T15:24:44;12.30;99.90
2967;DHT22;1493;51.496;7.210;2024-01-30T15:27:11;12.30;99.90
2967;DHT22;1493;51.496;7.210;2024-01-30T15:29:39;12.30;99.90
2967;DHT22;1493;51.496;7.210;2024-01-30T15:32:09;12.20;99.90
2967;DHT22;1493;51.496;7.210;2024-01-30T15:34:38;12.20;99.90
2967;DHT22;1493;51.496;7.210;2024-01-30T15:37:05;12.20;99.90
2967;DHT22;1493;51.496;7.210;2024-01-30T15:39:33;12.10;99.90
2967;DHT22;1493;51.496;7.210;2024-01-30T15:42:00;12.00;99.90
2967;DHT22;1493;51.496;7.210;2024-01-30T15:44:27;12.00;99.90
2967;DHT22;1493;51.496;7.210;2024-01-30T15:46:57;12.00;99.90
2967;DHT22;1493;51.496;7.210;2024-01-30T15:49:24;12.00;99.90
2967;DHT22;1493;51.496;7.210;2024-01-30T15:51:51;12.00;99.90
2967;DHT22;1493;51.496;7.210;2024-01-30T15:54:18;11.90;99.90
2967;DHT22;1493;51.496;7.210;2024-01-30T15:56:46;11.80;99.90
2967;DHT22;1493;51.496;7.210;2024-01-30T15:59:13;11.80;99.90
2967;DHT22;1493;51.496;7.210;2024-01-30T16:01:40;11.70;99.90
2967;DHT22;1493;51.496;7.210;2024-01-30T16:04:08;11.70;99.90
2967;DHT22;1493;51.496;7.210;2024-01-30T16:06:35;11.60;99.90
2967;DHT22;1493;51.496;7.210;2024-01-30T16:09:02;11.50;99.90